sensor_id;sensor_type;location;lat;lon;timestamp;pressure;altitude;pressure_sealevel;temperature;humidity
68891;BME280;55932;48.702;8.884;2023-02-21T00:00:00;96620;;;4;66
68891;BME280;55932;48.702;8.884;2023-02-21T00:04:45;96620;;;3.8;66.5
68891;BME280;55932;48.702;8.884;2023-02-21T00:09:46;96630;;;3.3;67
68891;BME280;55932;48.702;8.884;2023-02-21T00:12:16;96620;;;3.2;66.5
68891;BME280;55932;48.702;8.884;2023-02-21T00:14:46;96610;;;3.3;66.5
68891;BME280;55932;48.702;8.884;2023-02-21T00:17:17;96610;;;3.3;66.5
68891;BME280;55932;48.702;8.884;2023-02-21T00:24:41;96620;;;3.1;66.5
68891;BME280;55932;48.702;8.884;2023-02-21T00:27:13;96620;;;2.9;67
68891;BME280;55932;48.702;8.884;2023-02-21T00:32:21;96610;;;3;66.5
68891;BME280;55932;48.702;8.884;2023-02-21T00:34:51;96600;;;3.3;66
68891;BME280;55932;48.702;8.884;2023-02-21T00:37:22;96600;;;3.5;66
68891;BME280;55932;48.702;8.884;2023-02-21T00:39:51;96600;;;3.5;66
68891;BME280;55932;48.702;8.884;2023-02-21T00:42:22;96590;;;3.7;66
68891;BME280;55932;48.702;8.884;2023-02-21T00:47:18;96590;;;3.5;66
68891;BME280;55932;48.702;8.884;2023-02-21T00:49:49;96590;;;3.5;66
68891;BME280;55932;48.702;8.884;2023-02-21T00:52:20;96590;;;3.4;66.5
68891;BME280;55932;48.702;8.884;2023-02-21T00:54:51;96600;;;3.1;66.5
68891;BME280;55932;48.702;8.884;2023-02-21T00:57:21;96600;;;2.9;67
68891;BME280;55932;48.702;8.884;2023-02-21T01:02:23;96600;;;3;66.5
68891;BME280;55932;48.702;8.884;2023-02-21T01:04:54;96600;;;2.8;66.5
68891;BME280;55932;48.702;8.884;2023-02-21T01:09:56;96600;;;2.3;67
68891;BME280;55932;48.702;8.884;2023-02-21T01:12:33;96600;;;2.2;67
68891;BME280;55932;48.702;8.884;2023-02-21T01:20:05;96590;;;1.9;67.5
68891;BME280;55932;48.702;8.884;2023-02-21T01:22:35;96580;;;1.8;67.5
68891;BME280;55932;48.702;8.884;2023-02-21T01:27:30;96580;;;2.1;66.5
68891;BME280;55932;48.702;8.884;2023-02-21T01:30:01;96590;;;2.1;66.5
68891;BME280;55932;48.702;8.884;2023-02-21T01:32:32;96590;;;2;67
68891;BME280;55932;48.702;8.884;2023-02-21T01:35:03;96590;;;1.9;67
68891;BME280;55932;48.702;8.884;2023-02-21T01:42:47;96570;;;2;66.5
68891;BME280;55932;48.702;8.884;2023-02-21T01:45:40;96580;;;1.9;67
68891;BME280;55932;48.702;8.884;2023-02-21T01:50:08;96580;;;1.9;66.5
68891;BME280;55932;48.702;8.884;2023-02-21T01:52:36;96570;;;1.9;67
68891;BME280;55932;48.702;8.884;2023-02-21T01:55:07;96570;;;1.9;66.5
68891;BME280;55932;48.702;8.884;2023-02-21T02:00:04;96570;;;2.2;66.5
68891;BME280;55932;48.702;8.884;2023-02-21T02:07:34;96570;;;2.2;66.5
68891;BME280;55932;48.702;8.884;2023-02-21T02:10:06;96570;;;1.9;67
68891;BME280;55932;48.702;8.884;2023-02-21T02:12:43;96570;;;1.8;67
68891;BME280;55932;48.702;8.884;2023-02-21T02:15:17;96560;;;1.7;67
68891;BME280;55932;48.702;8.884;2023-02-21T02:17:44;96560;;;1.6;67
68891;BME280;55932;48.702;8.884;2023-02-21T02:25:20;96550;;;1.3;67
68891;BME280;55932;48.702;8.884;2023-02-21T02:27:50;96560;;;1.4;67
68891;BME280;55932;48.702;8.884;2023-02-21T02:30:27;96560;;;1.5;67
68891;BME280;55932;48.702;8.884;2023-02-21T02:35:28;96550;;;1.6;66.5
68891;BME280;55932;48.702;8.884;2023-02-21T02:43:01;96550;;;1.7;66.5
68891;BME280;55932;48.702;8.884;2023-02-21T02:45:30;96550;;;1.9;66.5
68891;BME280;55932;48.702;8.884;2023-02-21T02:50:21;96550;;;1.8;66.5
68891;BME280;55932;48.702;8.884;2023-02-21T02:52:53;96540;;;1.7;67
68891;BME280;55932;48.702;8.884;2023-02-21T02:55:33;96540;;;1.6;67
68891;BME280;55932;48.702;8.884;2023-02-21T03:02:52;96530;;;1.4;67
68891;BME280;55932;48.702;8.884;2023-02-21T03:05:26;96540;;;1.3;67
68891;BME280;55932;48.702;8.884;2023-02-21T03:07:55;96540;;;1.3;67
68891;BME280;55932;48.702;8.884;2023-02-21T03:10:27;96540;;;1.3;67
68891;BME280;55932;48.702;8.884;2023-02-21T03:13:00;96540;;;1.3;67
68891;BME280;55932;48.702;8.884;2023-02-21T03:15:24;96540;;;1.5;66.5
68891;BME280;55932;48.702;8.884;2023-02-21T03:17:56;96530;;;1.7;66.5
68891;BME280;55932;48.702;8.884;2023-02-21T03:20:24;96530;;;1.8;66.5
68891;BME280;55932;48.702;8.884;2023-02-21T03:22:55;96530;;;1.9;66.5
68891;BME280;55932;48.702;8.884;2023-02-21T03:30:27;96530;;;1.9;66.5
68891;BME280;55932;48.702;8.884;2023-02-21T03:32:58;96540;;;1.9;66.5
68891;BME280;55932;48.702;8.884;2023-02-21T03:35:35;96530;;;1.7;67
68891;BME280;55932;48.702;8.884;2023-02-21T03:38:06;96540;;;1.6;67
68891;BME280;55932;48.702;8.884;2023-02-21T03:43:07;96540;;;1.3;67
68891;BME280;55932;48.702;8.884;2023-02-21T03:45:37;96530;;;1.2;67
68891;BME280;55932;48.702;8.884;2023-02-21T03:48:09;96530;;;1.2;67
68891;BME280;55932;48.702;8.884;2023-02-21T03:50:39;96530;;;1.2;67
68891;BME280;55932;48.702;8.884;2023-02-21T03:58:06;96520;;;1.6;66.5
68891;BME280;55932;48.702;8.884;2023-02-21T04:00:37;96520;;;1.8;66.5
68891;BME280;55932;48.702;8.884;2023-02-21T04:03:07;96530;;;1.9;66.5
68891;BME280;55932;48.702;8.884;2023-02-21T04:05:38;96530;;;1.8;66.5
68891;BME280;55932;48.702;8.884;2023-02-21T04:08:09;96520;;;1.6;66.5
68891;BME280;55932;48.702;8.884;2023-02-21T04:10:39;96520;;;1.4;67
68891;BME280;55932;48.702;8.884;2023-02-21T04:13:10;96510;;;1.3;67
68891;BME280;55932;48.702;8.884;2023-02-21T04:15:41;96520;;;1.3;67
68891;BME280;55932;48.702;8.884;2023-02-21T04:18:12;96520;;;1.3;67
68891;BME280;55932;48.702;8.884;2023-02-21T04:30:51;96530;;;1.2;67
68891;BME280;55932;48.702;8.884;2023-02-21T04:35:53;96520;;;1.3;66.5
68891;BME280;55932;48.702;8.884;2023-02-21T04:38:24;96520;;;1.3;66.5
68891;BME280;55932;48.702;8.884;2023-02-21T04:40:54;96520;;;1.3;66.5
68891;BME280;55932;48.702;8.884;2023-02-21T04:43:18;96520;;;1.4;66.5
68891;BME280;55932;48.702;8.884;2023-02-21T04:45:49;96520;;;1.4;66.5
68891;BME280;55932;48.702;8.884;2023-02-21T04:48:20;96530;;;1.5;66.5
68891;BME280;55932;48.702;8.884;2023-02-21T04:55:52;96510;;;1.2;66.5
68891;BME280;55932;48.702;8.884;2023-02-21T04:58:23;96510;;;1.2;66.5
68891;BME280;55932;48.702;8.884;2023-02-21T05:00:53;96510;;;1.1;66.5
68891;BME280;55932;48.702;8.884;2023-02-21T05:03:31;96520;;;1.1;66.5
68891;BME280;55932;48.702;8.884;2023-02-21T05:08:32;96510;;;1.1;66.5
68891;BME280;55932;48.702;8.884;2023-02-21T05:11:04;96510;;;1.1;66.5
68891;BME280;55932;48.702;8.884;2023-02-21T05:21:13;96510;;;1.2;66.5
68891;BME280;55932;48.702;8.884;2023-02-21T05:23:43;96510;;;1.3;66.5
68891;BME280;55932;48.702;8.884;2023-02-21T05:28:37;96510;;;1.3;66.5
68891;BME280;55932;48.702;8.884;2023-02-21T05:31:07;96510;;;1.3;66.5
68891;BME280;55932;48.702;8.884;2023-02-21T05:33:39;96510;;;1.3;66.5
68891;BME280;55932;48.702;8.884;2023-02-21T05:41:04;96510;;;1.3;66.5
68891;BME280;55932;48.702;8.884;2023-02-21T05:43:34;96510;;;1.3;66.5
68891;BME280;55932;48.702;8.884;2023-02-21T05:46:06;96510;;;1.2;66.5
68891;BME280;55932;48.702;8.884;2023-02-21T05:48:36;96510;;;1.1;67
68891;BME280;55932;48.702;8.884;2023-02-21T05:51:07;96510;;;1.1;66.5
68891;BME280;55932;48.702;8.884;2023-02-21T05:53:38;96510;;;1.4;66.5
68891;BME280;55932;48.702;8.884;2023-02-21T05:56:08;96520;;;1.9;66
68891;BME280;55932;48.702;8.884;2023-02-21T05:58:39;96520;;;2.2;66
68891;BME280;55932;48.702;8.884;2023-02-21T06:01:10;96510;;;2.1;66
68891;BME280;55932;48.702;8.884;2023-02-21T06:03:41;96510;;;1.8;66.5
68891;BME280;55932;48.702;8.884;2023-02-21T06:11:13;96510;;;2.1;66
68891;BME280;55932;48.702;8.884;2023-02-21T06:16:21;96510;;;1.8;66.5
68891;BME280;55932;48.702;8.884;2023-02-21T06:18:53;96510;;;2;66.5
68891;BME280;55932;48.702;8.884;2023-02-21T06:21:23;96510;;;2.2;66
68891;BME280;55932;48.702;8.884;2023-02-21T06:26:19;96510;;;1.9;66.5
68891;BME280;55932;48.702;8.884;2023-02-21T06:28:49;96510;;;1.9;66.5
68891;BME280;55932;48.702;8.884;2023-02-21T06:31:20;96510;;;2.2;66.5
68891;BME280;55932;48.702;8.884;2023-02-21T06:38:53;96510;;;3.1;65.5
68891;BME280;55932;48.702;8.884;2023-02-21T06:41:24;96490;;;3.2;65.5
68891;BME280;55932;48.702;8.884;2023-02-21T06:43:54;96490;;;3.2;65.5
68891;BME280;55932;48.702;8.884;2023-02-21T06:49:01;96500;;;3.5;65.5
68891;BME280;55932;48.702;8.884;2023-02-21T06:51:33;96500;;;3.4;66
68891;BME280;55932;48.702;8.884;2023-02-21T06:54:03;96490;;;3.3;66
68891;BME280;55932;48.702;8.884;2023-02-21T06:56:41;96490;;;3.2;66
68891;BME280;55932;48.702;8.884;2023-02-21T06:58:58;96490;;;3.4;66
68891;BME280;55932;48.702;8.884;2023-02-21T07:09:02;96480;;;4.5;65
68891;BME280;55932;48.702;8.884;2023-02-21T07:11:33;96480;;;4.9;64.5
68891;BME280;55932;48.702;8.884;2023-02-21T07:14:03;96470;;;5.2;64.5
68891;BME280;55932;48.702;8.884;2023-02-21T07:16:34;96480;;;5.6;64.5
68891;BME280;55932;48.702;8.884;2023-02-21T07:19:11;96480;;;6.5;62.5
68891;BME280;55932;48.702;8.884;2023-02-21T07:21:42;96480;;;7;62
68891;BME280;55932;48.702;8.884;2023-02-21T07:24:13;96480;;;6.8;62.5
68891;BME280;55932;48.702;8.884;2023-02-21T07:26:37;96490;;;6.3;63.5
68891;BME280;55932;48.702;8.884;2023-02-21T07:29:07;96490;;;5.6;64.5
68891;BME280;55932;48.702;8.884;2023-02-21T07:31:38;96490;;;5.2;65
68891;BME280;55932;48.702;8.884;2023-02-21T07:34:09;96490;;;5.1;64.5
68891;BME280;55932;48.702;8.884;2023-02-21T07:44:12;96490;;;5.7;64.5
68891;BME280;55932;48.702;8.884;2023-02-21T07:47:03;96490;;;7.9;60.5
68891;BME280;55932;48.702;8.884;2023-02-21T07:49:26;96490;;;8.1;60
68891;BME280;55932;48.702;8.884;2023-02-21T07:51:57;96490;;;8;61
68891;BME280;55932;48.702;8.884;2023-02-21T07:54:27;96490;;;7;64.5
68891;BME280;55932;48.702;8.884;2023-02-21T07:56:58;96490;;;7;64.5
68891;BME280;55932;48.702;8.884;2023-02-21T07:59:28;96490;;;7;64.5
68891;BME280;55932;48.702;8.884;2023-02-21T08:01:52;96490;;;7.2;64.5
68891;BME280;55932;48.702;8.884;2023-02-21T08:04:23;96490;;;7.9;63.5
68891;BME280;55932;48.702;8.884;2023-02-21T08:07:01;96490;;;9.1;61
68891;BME280;55932;48.702;8.884;2023-02-21T08:09:32;96480;;;9.8;60
68891;BME280;55932;48.702;8.884;2023-02-21T08:14:20;96500;;;10.2;60
68891;BME280;55932;48.702;8.884;2023-02-21T08:16:50;96490;;;10.7;59
68891;BME280;55932;48.702;8.884;2023-02-21T08:19:21;96490;;;10.6;59
68891;BME280;55932;48.702;8.884;2023-02-21T08:21:53;96480;;;11;59
68891;BME280;55932;48.702;8.884;2023-02-21T08:24:23;96480;;;11.5;58
68891;BME280;55932;48.702;8.884;2023-02-21T08:26:53;96490;;;11.1;59
68891;BME280;55932;48.702;8.884;2023-02-21T08:29:24;96490;;;10.8;60
68891;BME280;55932;48.702;8.884;2023-02-21T08:36:56;96490;;;9.9;62.5
68891;BME280;55932;48.702;8.884;2023-02-21T08:44:35;96490;;;11.6;60.5
68891;BME280;55932;48.702;8.884;2023-02-21T08:47:06;96490;;;12;60
68891;BME280;55932;48.702;8.884;2023-02-21T08:49:37;96490;;;12.2;60.5
68891;BME280;55932;48.702;8.884;2023-02-21T08:54:33;96480;;;13.4;61
68891;BME280;55932;48.702;8.884;2023-02-21T08:57:03;96480;;;13.6;61
68891;BME280;55932;48.702;8.884;2023-02-21T08:59:34;96490;;;14.2;61
68891;BME280;55932;48.702;8.884;2023-02-21T09:07:11;96480;;;17.6;58
68891;BME280;55932;48.702;8.884;2023-02-21T09:09:37;96480;;;18.9;57
68891;BME280;55932;48.702;8.884;2023-02-21T09:12:15;96470;;;19.6;56
68891;BME280;55932;48.702;8.884;2023-02-21T09:14:45;96480;;;19.4;57
68891;BME280;55932;48.702;8.884;2023-02-21T09:17:17;96470;;;19.5;57.5
68891;BME280;55932;48.702;8.884;2023-02-21T09:22:12;96470;;;20.4;55.5
68891;BME280;55932;48.702;8.884;2023-02-21T09:24:41;96470;;;20.6;56.5
68891;BME280;55932;48.702;8.884;2023-02-21T09:27:13;96460;;;21.7;55.5
68891;BME280;55932;48.702;8.884;2023-02-21T09:34:45;96460;;;23;53
68891;BME280;55932;48.702;8.884;2023-02-21T09:37:15;96470;;;22.7;53
68891;BME280;55932;48.702;8.884;2023-02-21T09:39:46;96470;;;22.4;54.5
68891;BME280;55932;48.702;8.884;2023-02-21T09:42:30;96460;;;21.7;58
68891;BME280;55932;48.702;8.884;2023-02-21T09:45:01;96460;;;21.7;59
68891;BME280;55932;48.702;8.884;2023-02-21T09:47:32;96470;;;22.6;56
68891;BME280;55932;48.702;8.884;2023-02-21T09:50:04;96460;;;22.7;56
68891;BME280;55932;48.702;8.884;2023-02-21T09:54:56;96460;;;24.2;55
68891;BME280;55932;48.702;8.884;2023-02-21T09:57:27;96460;;;23.9;56
68891;BME280;55932;48.702;8.884;2023-02-21T09:59:57;96460;;;23.4;56
68891;BME280;55932;48.702;8.884;2023-02-21T10:02:39;96450;;;23.3;56
68891;BME280;55932;48.702;8.884;2023-02-21T10:07:34;96460;;;21.9;59.5
68891;BME280;55932;48.702;8.884;2023-02-21T10:12:43;96460;;;22.2;58
68891;BME280;55932;48.702;8.884;2023-02-21T10:20:12;96460;;;22;60
68891;BME280;55932;48.702;8.884;2023-02-21T10:25:34;96450;;;21;63
68891;BME280;55932;48.702;8.884;2023-02-21T10:35:06;96440;;;23.4;58.5
68891;BME280;55932;48.702;8.884;2023-02-21T10:37:40;96440;;;23.2;59
68891;BME280;55932;48.702;8.884;2023-02-21T10:41:18;96440;;;22.9;58.5
68891;BME280;55932;48.702;8.884;2023-02-21T10:45:15;96440;;;22.3;60.5
68891;BME280;55932;48.702;8.884;2023-02-21T10:47:52;96440;;;22.2;60
68891;BME280;55932;48.702;8.884;2023-02-21T10:50:09;96440;;;22.6;61.5
68891;BME280;55932;48.702;8.884;2023-02-21T10:52:48;96450;;;22.7;60.5
68891;BME280;55932;48.702;8.884;2023-02-21T10:55:19;96440;;;22.3;62
68891;BME280;55932;48.702;8.884;2023-02-21T11:00:44;96440;;;22.4;61.5
68891;BME280;55932;48.702;8.884;2023-02-21T11:02:44;96440;;;22.2;60.5
68891;BME280;55932;48.702;8.884;2023-02-21T11:05:16;96440;;;21.9;61
68891;BME280;55932;48.702;8.884;2023-02-21T11:10:25;96430;;;22.2;61
68891;BME280;55932;48.702;8.884;2023-02-21T11:13:23;96430;;;22;61.5
68891;BME280;55932;48.702;8.884;2023-02-21T11:15:30;96420;;;22;61.5
68891;BME280;55932;48.702;8.884;2023-02-21T11:20:22;96420;;;22.5;61.5
68891;BME280;55932;48.702;8.884;2023-02-21T11:28:02;96410;;;21.4;63
68891;BME280;55932;48.702;8.884;2023-02-21T11:30:32;96410;;;21.5;63.5
68891;BME280;55932;48.702;8.884;2023-02-21T11:33:00;96410;;;21.7;62
68891;BME280;55932;48.702;8.884;2023-02-21T11:35:32;96400;;;21.6;62.5
68891;BME280;55932;48.702;8.884;2023-02-21T11:38:04;96400;;;22.1;62
68891;BME280;55932;48.702;8.884;2023-02-21T11:40:28;96390;;;21.9;61.5
68891;BME280;55932;48.702;8.884;2023-02-21T11:43:29;96390;;;21.7;61.5
68891;BME280;55932;48.702;8.884;2023-02-21T11:45:28;96390;;;21.5;62
68891;BME280;55932;48.702;8.884;2023-02-21T11:48:04;96380;;;21.2;63
68891;BME280;55932;48.702;8.884;2023-02-21T11:50:32;96370;;;21.6;63
68891;BME280;55932;48.702;8.884;2023-02-21T11:55:24;96360;;;21.8;62.5
68891;BME280;55932;48.702;8.884;2023-02-21T12:00:29;96360;;;21.8;62.5
68891;BME280;55932;48.702;8.884;2023-02-21T12:03:03;96360;;;22;63
68891;BME280;55932;48.702;8.884;2023-02-21T12:13:04;96340;;;23.2;60.5
68891;BME280;55932;48.702;8.884;2023-02-21T12:15:42;96330;;;23.2;60.5
68891;BME280;55932;48.702;8.884;2023-02-21T12:18:46;96340;;;22.2;61.5
68891;BME280;55932;48.702;8.884;2023-02-21T12:20:49;96330;;;22.3;63
68891;BME280;55932;48.702;8.884;2023-02-21T12:26:14;96310;;;23.3;61.5
68891;BME280;55932;48.702;8.884;2023-02-21T12:28:23;96310;;;22.7;62
68891;BME280;55932;48.702;8.884;2023-02-21T12:30:47;96310;;;22.6;62.5
68891;BME280;55932;48.702;8.884;2023-02-21T12:33:17;96300;;;22.4;63
68891;BME280;55932;48.702;8.884;2023-02-21T12:40:57;96300;;;22.5;61.5
68891;BME280;55932;48.702;8.884;2023-02-21T12:43:17;96290;;;22.9;61.5
68891;BME280;55932;48.702;8.884;2023-02-21T12:45:55;96280;;;22.6;62
68891;BME280;55932;48.702;8.884;2023-02-21T12:48:17;96280;;;22.7;61.5
68891;BME280;55932;48.702;8.884;2023-02-21T12:53:18;96270;;;23.5;61.5
68891;BME280;55932;48.702;8.884;2023-02-21T12:55:48;96270;;;23.8;60
68891;BME280;55932;48.702;8.884;2023-02-21T12:58:21;96270;;;23.5;60.5
68891;BME280;55932;48.702;8.884;2023-02-21T13:00:51;96260;;;22.8;61
68891;BME280;55932;48.702;8.884;2023-02-21T13:05:53;96250;;;22.9;63
68891;BME280;55932;48.702;8.884;2023-02-21T13:13:48;96240;;;23.8;61.5
68891;BME280;55932;48.702;8.884;2023-02-21T13:16:00;96230;;;23.7;62
68891;BME280;55932;48.702;8.884;2023-02-21T13:18:33;96230;;;24;60.5
68891;BME280;55932;48.702;8.884;2023-02-21T13:21:03;96220;;;23.7;60.5
68891;BME280;55932;48.702;8.884;2023-02-21T13:23:25;96220;;;23.2;61
68891;BME280;55932;48.702;8.884;2023-02-21T13:26:01;96210;;;22.7;63
68891;BME280;55932;48.702;8.884;2023-02-21T13:28:27;96210;;;23.2;62
68891;BME280;55932;48.702;8.884;2023-02-21T13:31:05;96200;;;23.6;61
68891;BME280;55932;48.702;8.884;2023-02-21T13:36:18;96200;;;22.3;63
68891;BME280;55932;48.702;8.884;2023-02-21T13:38:57;96200;;;22.2;63
68891;BME280;55932;48.702;8.884;2023-02-21T13:41:07;96190;;;21.9;63
68891;BME280;55932;48.702;8.884;2023-02-21T13:43:36;96190;;;22.3;62.5
68891;BME280;55932;48.702;8.884;2023-02-21T13:47:06;96190;;;22.6;61.5
68891;BME280;55932;48.702;8.884;2023-02-21T13:48:36;96180;;;22.7;61
68891;BME280;55932;48.702;8.884;2023-02-21T13:51:43;96180;;;22.7;61
68891;BME280;55932;48.702;8.884;2023-02-21T13:54:21;96180;;;22.7;61
68891;BME280;55932;48.702;8.884;2023-02-21T14:01:14;96170;;;22.7;61.5
68891;BME280;55932;48.702;8.884;2023-02-21T14:08:39;96160;;;23.1;61
68891;BME280;55932;48.702;8.884;2023-02-21T14:11:12;96160;;;23.3;60.5
68891;BME280;55932;48.702;8.884;2023-02-21T14:13:45;96160;;;23;61.5
68891;BME280;55932;48.702;8.884;2023-02-21T14:16:07;96160;;;23.1;61.5
68891;BME280;55932;48.702;8.884;2023-02-21T14:18:30;96150;;;23.5;61
68891;BME280;55932;48.702;8.884;2023-02-21T14:21:01;96150;;;23.2;61
68891;BME280;55932;48.702;8.884;2023-02-21T14:23:36;96150;;;23;60
68891;BME280;55932;48.702;8.884;2023-02-21T14:26:05;96150;;;22.4;61
68891;BME280;55932;48.702;8.884;2023-02-21T14:31:04;96140;;;22.4;62.5
68891;BME280;55932;48.702;8.884;2023-02-21T14:33:34;96150;;;22.8;61
68891;BME280;55932;48.702;8.884;2023-02-21T14:36:06;96140;;;22.7;61
68891;BME280;55932;48.702;8.884;2023-02-21T14:46:33;96130;;;22.5;61.5
68891;BME280;55932;48.702;8.884;2023-02-21T14:49:23;96120;;;22.5;62
68891;BME280;55932;48.702;8.884;2023-02-21T14:53:53;96120;;;22.9;60.5
68891;BME280;55932;48.702;8.884;2023-02-21T14:56:23;96110;;;22.2;61
68891;BME280;55932;48.702;8.884;2023-02-21T14:58:55;96110;;;22.3;61
68891;BME280;55932;48.702;8.884;2023-02-21T15:01:32;96120;;;21.9;60.5
68891;BME280;55932;48.702;8.884;2023-02-21T15:08:46;96120;;;20.7;60.5
68891;BME280;55932;48.702;8.884;2023-02-21T15:16:18;96110;;;19.8;61.5
68891;BME280;55932;48.702;8.884;2023-02-21T15:18:57;96110;;;19.7;60.5
68891;BME280;55932;48.702;8.884;2023-02-21T15:21:20;96110;;;19.5;61
68891;BME280;55932;48.702;8.884;2023-02-21T15:24:22;96100;;;19.4;60.5
68891;BME280;55932;48.702;8.884;2023-02-21T15:26:29;96100;;;19.1;61
68891;BME280;55932;48.702;8.884;2023-02-21T15:29:07;96100;;;18.6;62.5
68891;BME280;55932;48.702;8.884;2023-02-21T15:31:32;96100;;;18.4;62.5
68891;BME280;55932;48.702;8.884;2023-02-21T15:33:53;96100;;;18.1;62
68891;BME280;55932;48.702;8.884;2023-02-21T15:44:00;96090;;;16.7;62.5
68891;BME280;55932;48.702;8.884;2023-02-21T15:46:31;96090;;;16.5;62.5
68891;BME280;55932;48.702;8.884;2023-02-21T15:48:59;96090;;;16.2;62.5
68891;BME280;55932;48.702;8.884;2023-02-21T15:51:36;96090;;;15.9;62.5
68891;BME280;55932;48.702;8.884;2023-02-21T15:56:44;96100;;;15.4;63
68891;BME280;55932;48.702;8.884;2023-02-21T15:59:17;96080;;;15.2;63
68891;BME280;55932;48.702;8.884;2023-02-21T16:01:37;96080;;;14.9;63.5
68891;BME280;55932;48.702;8.884;2023-02-21T16:04:17;96090;;;14.6;63.5
68891;BME280;55932;48.702;8.884;2023-02-21T16:06:44;96080;;;14.3;63.5
68891;BME280;55932;48.702;8.884;2023-02-21T16:09:19;96080;;;14;64
68891;BME280;55932;48.702;8.884;2023-02-21T16:16:50;96080;;;13.2;64
68891;BME280;55932;48.702;8.884;2023-02-21T16:19:20;96080;;;13;64
68891;BME280;55932;48.702;8.884;2023-02-21T16:24:29;96080;;;12.9;64
68891;BME280;55932;48.702;8.884;2023-02-21T16:26:58;96080;;;12.7;64
68891;BME280;55932;48.702;8.884;2023-02-21T16:29:15;96090;;;12.6;64
68891;BME280;55932;48.702;8.884;2023-02-21T16:34:11;96090;;;12.2;64.5
68891;BME280;55932;48.702;8.884;2023-02-21T16:36:40;96090;;;12;64.5
68891;BME280;55932;48.702;8.884;2023-02-21T16:39:11;96090;;;11.9;64.5
68891;BME280;55932;48.702;8.884;2023-02-21T16:41:43;96100;;;11.8;64.5
68891;BME280;55932;48.702;8.884;2023-02-21T16:44:14;96100;;;11.6;64.5
68891;BME280;55932;48.702;8.884;2023-02-21T16:46:58;96100;;;11.3;64.5
68891;BME280;55932;48.702;8.884;2023-02-21T16:49:15;96100;;;11.2;64.5
68891;BME280;55932;48.702;8.884;2023-02-21T16:51:46;96100;;;11.2;64.5
68891;BME280;55932;48.702;8.884;2023-02-21T16:54:16;96100;;;11.2;64.5
68891;BME280;55932;48.702;8.884;2023-02-21T16:56:53;96100;;;11.1;64.5
68891;BME280;55932;48.702;8.884;2023-02-21T17:04:20;96100;;;10.7;64.5
68891;BME280;55932;48.702;8.884;2023-02-21T17:06:52;96100;;;10.8;64
68891;BME280;55932;48.702;8.884;2023-02-21T17:09:24;96100;;;10.7;64.5
68891;BME280;55932;48.702;8.884;2023-02-21T17:11:52;96100;;;10.5;64.5
68891;BME280;55932;48.702;8.884;2023-02-21T17:16:59;96110;;;10.4;64.5
68891;BME280;55932;48.702;8.884;2023-02-21T17:19:30;96110;;;10.5;64.5
68891;BME280;55932;48.702;8.884;2023-02-21T17:22:08;96110;;;10.5;64.5
68891;BME280;55932;48.702;8.884;2023-02-21T17:29:54;96120;;;10.3;64.5
68891;BME280;55932;48.702;8.884;2023-02-21T17:32:11;96120;;;10.2;64.5
68891;BME280;55932;48.702;8.884;2023-02-21T17:34:54;96110;;;10;64.5
68891;BME280;55932;48.702;8.884;2023-02-21T17:37:11;96120;;;9.8;65
68891;BME280;55932;48.702;8.884;2023-02-21T17:42:05;96120;;;9.5;65
68891;BME280;55932;48.702;8.884;2023-02-21T17:44:36;96120;;;9.3;65
68891;BME280;55932;48.702;8.884;2023-02-21T17:47:07;96120;;;9.1;65
68891;BME280;55932;48.702;8.884;2023-02-21T17:49:30;96130;;;9;65.5
68891;BME280;55932;48.702;8.884;2023-02-21T17:57:03;96130;;;8.7;65
68891;BME280;55932;48.702;8.884;2023-02-21T17:59:34;96140;;;8.6;65
68891;BME280;55932;48.702;8.884;2023-02-21T18:02:05;96130;;;8.5;65
68891;BME280;55932;48.702;8.884;2023-02-21T18:04:36;96140;;;8.3;65
68891;BME280;55932;48.702;8.884;2023-02-21T18:09:44;96140;;;8.1;65
68891;BME280;55932;48.702;8.884;2023-02-21T18:12:14;96140;;;8;65
68891;BME280;55932;48.702;8.884;2023-02-21T18:17:09;96140;;;7.7;65.5
68891;BME280;55932;48.702;8.884;2023-02-21T18:19:40;96150;;;7.6;65
68891;BME280;55932;48.702;8.884;2023-02-21T18:27:12;96140;;;7.4;65
68891;BME280;55932;48.702;8.884;2023-02-21T18:29:43;96140;;;7.3;65.5
68891;BME280;55932;48.702;8.884;2023-02-21T18:32:14;96140;;;7.2;65.5
68891;BME280;55932;48.702;8.884;2023-02-21T18:34:45;96140;;;7.1;65
68891;BME280;55932;48.702;8.884;2023-02-21T18:39:52;96140;;;7;65
68891;BME280;55932;48.702;8.884;2023-02-21T18:42:23;96140;;;6.9;65
68891;BME280;55932;48.702;8.884;2023-02-21T18:44:54;96140;;;7;65
68891;BME280;55932;48.702;8.884;2023-02-21T18:47:25;96140;;;7;65
68891;BME280;55932;48.702;8.884;2023-02-21T18:50:02;96130;;;6.9;65
68891;BME280;55932;48.702;8.884;2023-02-21T18:52:32;96140;;;6.9;65
68891;BME280;55932;48.702;8.884;2023-02-21T18:57:27;96130;;;6.8;64.5
68891;BME280;55932;48.702;8.884;2023-02-21T18:59:58;96140;;;6.8;64.5
68891;BME280;55932;48.702;8.884;2023-02-21T19:02:29;96130;;;6.7;64.5
68891;BME280;55932;48.702;8.884;2023-02-21T19:07:36;96140;;;6.6;64.5
68891;BME280;55932;48.702;8.884;2023-02-21T19:10:08;96130;;;6.6;64.5
68891;BME280;55932;48.702;8.884;2023-02-21T19:12:30;96140;;;6.5;64.5
68891;BME280;55932;48.702;8.884;2023-02-21T19:15:02;96130;;;6.4;65
68891;BME280;55932;48.702;8.884;2023-02-21T19:17:39;96140;;;6.3;65
68891;BME280;55932;48.702;8.884;2023-02-21T19:20:04;96140;;;6.2;65
68891;BME280;55932;48.702;8.884;2023-02-21T19:22:41;96130;;;6.3;64.5
68891;BME280;55932;48.702;8.884;2023-02-21T19:25:11;96130;;;6.3;64.5
68891;BME280;55932;48.702;8.884;2023-02-21T19:27:41;96130;;;6.3;65
68891;BME280;55932;48.702;8.884;2023-02-21T19:30:11;96130;;;6.3;64.5
68891;BME280;55932;48.702;8.884;2023-02-21T19:32:36;96120;;;6.2;65
68891;BME280;55932;48.702;8.884;2023-02-21T19:35:07;96130;;;6.1;65
68891;BME280;55932;48.702;8.884;2023-02-21T19:37:44;96130;;;6;65
68891;BME280;55932;48.702;8.884;2023-02-21T19:45:16;96130;;;5.7;65
68891;BME280;55932;48.702;8.884;2023-02-21T19:47:46;96120;;;5.7;65
68891;BME280;55932;48.702;8.884;2023-02-21T19:50:16;96130;;;5.5;65.5
68891;BME280;55932;48.702;8.884;2023-02-21T19:52:50;96130;;;5.4;65.5
68891;BME280;55932;48.702;8.884;2023-02-21T19:55:16;96130;;;5.3;65.5
68891;BME280;55932;48.702;8.884;2023-02-21T19:57:40;96130;;;5.3;65.5
68891;BME280;55932;48.702;8.884;2023-02-21T20:00:18;96130;;;5.3;65.5
68891;BME280;55932;48.702;8.884;2023-02-21T20:02:48;96130;;;5.4;65.5
68891;BME280;55932;48.702;8.884;2023-02-21T20:05:19;96130;;;5.5;65.5
68891;BME280;55932;48.702;8.884;2023-02-21T20:12:53;96130;;;5.9;64.5
68891;BME280;55932;48.702;8.884;2023-02-21T20:15:23;96130;;;5.9;64.5